Terminal Aerodrome Forecast
Issued by NWS

Home | Current Version | Previous Version | Text Only | Print | Product List | Glossary On
Versions: 1 2 3 4 5 6 7 8 9 10 11 12 13 14 15
000
FTUS41 KALY 271804 AAA
TAFPSF
TAF AMD
KPSF 271804Z 2718/2818 32012G20KT P6SM VCSH SCT035 BKN045
      TEMPO 2718/2722 BKN035 OVC045
     FM280200 32010G16KT P6SM VCSH SCT025 OVC035
     FM281400 34012G23KT P6SM BKN045=

USA.gov is the U.S. government's official web portal to all federal, state and local government web resources and services.